Time;durP1;ratioP1;P1;durP2;ratioP2;P2;SDS_P1;SDS_P2;PMS_P1;PMS_P2;Temp;Humidity;BMP_temperature;BMP_pressure;BME280_temperature;BME280_humidity;BME280_pressure;Samples;Min_cycle;Max_cycle;Signal;HPM_P1;HPM_P2
2021/07/18 00:00:16;;;;;;;;;;;;;;;22.11;62.50;95874.00;1043406;28;2251;-76
2021/07/18 00:00:46;;;;;;;;;;;;;;;22.11;62.46;95869.50;1044284;28;2459;-76
2021/07/18 00:01:16;;;;;;;;;;;;;;;22.12;62.44;95868.44;1041166;28;1213;-76
2021/07/18 00:01:47;;;;;;;;;;;;;;;22.13;62.30;95871.88;1039319;28;2674;-76
2021/07/18 00:02:17;;;;;;;;;;;;;;;22.12;62.24;95876.34;1035316;28;2372;-76
2021/07/18 00:02:47;;;;;;;;;;;;;;;22.13;62.55;95866.59;1040079;28;2182;-77
2021/07/18 00:03:17;;;;;;;;;;;;;;;22.12;62.25;95873.72;1041279;28;2475;-77
2021/07/18 00:03:48;;;;;;;;;;;;;;;22.11;62.32;95868.72;1039886;28;2701;-76
2021/07/18 00:04:18;;;;;;;;;;;;;;;22.11;62.37;95864.25;1039545;28;2348;-77
2021/07/18 00:04:50;;;;;;;;;;;;;;;22.11;62.16;95866.09;1037821;28;1328;-75
2021/07/18 00:05:20;;;;;;;;;;;;;;;22.11;62.38;95868.72;1041445;28;1116;-77
2021/07/18 00:05:50;;;;;;;;;;;;;;;22.11;62.55;95869.50;1046358;28;1223;-76
2021/07/18 00:06:21;;;;;;;;;;;;;;;22.10;62.34;95870.56;1041650;28;1258;-76
2021/07/18 00:06:51;;;;;;;;;;;;;;;22.10;62.41;95867.13;1036516;28;1462;-76
2021/07/18 00:07:21;;;;;;;;;;;;;;;22.09;62.60;95866.34;1037393;28;804;-76
2021/07/18 00:07:51;;;;;;;;;;;;;;;22.10;62.42;95877.69;1030201;28;1327;-76
2021/07/18 00:08:22;;;;;;;;;;;;;;;22.09;62.46;95868.22;1032435;28;944;-76
2021/07/18 00:08:52;;;;;;;;;;;;;;;22.08;62.55;95875.34;1040733;28;1018;-77
2021/07/18 00:09:22;;;;;;;;;;;;;;;22.09;62.29;95866.34;1042795;28;2321;-77
2021/07/18 00:09:53;;;;;;;;;;;;;;;22.11;62.31;95866.09;1042354;28;1244;-76
2021/07/18 00:10:27;;;;;;;;;;;;;;;22.11;62.30;95868.72;1045735;28;1206;-76
2021/07/18 00:10:57;;;;;;;;;;;;;;;22.11;62.25;95868.72;1041007;28;1454;-76
2021/07/18 00:11:27;;;;;;;;;;;;;;;22.11;62.33;95868.72;1040816;28;1782;-76
2021/07/18 00:11:58;;;;;;;;;;;;;;;22.09;62.27;95870.84;1047669;28;1187;-76
2021/07/18 00:12:28;;;;;;;;;;;;;;;22.10;62.49;95873.22;1049765;28;1021;-75
2021/07/18 00:12:58;;;;;;;;;;;;;;;22.10;62.52;95867.13;1048487;28;1118;-76
2021/07/18 00:13:28;;;;;;;;;;;;;;;22.11;62.30;95874.00;1048152;28;1333;-76
2021/07/18 00:13:59;;;;;;;;;;;;;;;22.09;62.63;95866.34;1043398;28;1144;-76
2021/07/18 00:14:29;;;;;;;;;;;;;;;22.10;62.62;95867.94;1037902;28;2282;-75
2021/07/18 00:14:59;;;;;;;;;;;;;;;22.10;62.43;95864.50;1032791;28;1255;-76
2021/07/18 00:15:29;;;;;;;;;;;;;;;22.09;62.64;95865.56;1037140;28;1049;-76
2021/07/18 00:16:00;;;;;;;;;;;;;;;22.10;62.58;95873.22;1039298;28;1164;-76
2021/07/18 00:16:31;;;;;;;;;;;;;;;22.09;62.47;95866.34;1045195;28;1427;-75
2021/07/18 00:17:02;;;;;;;;;;;;;;;22.09;62.69;95862.94;1043759;28;1563;-77
2021/07/18 00:17:37;;;;;;;;;;;;;;;22.08;62.60;95864.00;1037890;28;1473;-77
2021/07/18 00:18:08;;;;;;;;;;;;;;;22.08;62.66;95864.78;1040251;28;1136;-76
2021/07/18 00:18:38;;;;;;;;;;;;;;;22.09;62.64;95866.34;1037382;28;1219;-76
2021/07/18 00:19:09;;;;;;;;;;;;;;;22.09;62.64;95865.56;1036041;28;1402;-74
2021/07/18 00:19:39;;;;;;;;;;;;;;;22.09;62.41;95863.69;1033839;28;2398;-77
2021/07/18 00:20:19;;;;;;;;;;;;;;;22.09;62.53;95863.69;1040237;28;1074;-76
2021/07/18 00:20:50;;;;;;;;;;;;;;;22.09;62.85;95862.94;1030327;28;1867;-75
2021/07/18 00:21:20;;;;;;;;;;;;;;;22.09;62.90;95858.41;1038492;28;1150;-75
2021/07/18 00:21:50;;;;;;;;;;;;;;;22.10;62.57;95864.50;1043581;28;1112;-76
2021/07/18 00:22:21;;;;;;;;;;;;;;;22.08;62.84;95854.22;1049661;28;993;-76
2021/07/18 00:22:51;;;;;;;;;;;;;;;22.07;62.65;95850.00;1046159;28;1265;-76
2021/07/18 00:23:22;;;;;;;;;;;;;;;22.10;62.86;95853.94;1044060;28;1329;-76
2021/07/18 00:23:53;;;;;;;;;;;;;;;22.09;62.78;95857.66;1041049;28;1365;-76
2021/07/18 00:24:23;;;;;;;;;;;;;;;22.09;62.94;95855.03;1033183;28;1298;-76
2021/07/18 00:24:54;;;;;;;;;;;;;;;22.08;62.87;95848.16;1033231;28;2596;-76
2021/07/18 00:25:24;;;;;;;;;;;;;;;22.09;62.86;95845.22;1036856;28;819;-76
2021/07/18 00:25:54;;;;;;;;;;;;;;;22.10;62.83;95856.56;1043683;28;1147;-76
2021/07/18 00:26:25;;;;;;;;;;;;;;;22.09;62.62;95855.78;1044957;28;1249;-76
2021/07/18 00:26:55;;;;;;;;;;;;;;;22.09;62.80;95853.13;1042285;28;2633;-76
2021/07/18 00:27:25;;;;;;;;;;;;;;;22.09;63.02;95855.78;1046361;28;1154;-76
2021/07/18 00:27:55;;;;;;;;;;;;;;;22.09;62.78;95852.38;1035391;28;2706;-76
2021/07/18 00:28:26;;;;;;;;;;;;;;;22.09;63.04;95849.75;1036522;28;2607;-76
2021/07/18 00:28:56;;;;;;;;;;;;;;;22.08;62.88;95854.22;1039935;28;2303;-77
2021/07/18 00:29:26;;;;;;;;;;;;;;;22.08;62.88;95848.16;1039851;28;1886;-75
2021/07/18 00:29:57;;;;;;;;;;;;;;;22.09;62.95;95855.03;1043341;28;2295;-75
2021/07/18 00:30:27;;;;;;;;;;;;;;;22.08;62.94;95848.16;1036172;28;2329;-77
2021/07/18 00:30:57;;;;;;;;;;;;;;;22.08;62.84;95848.94;1038233;28;1318;-75
2021/07/18 00:31:28;;;;;;;;;;;;;;;22.08;62.77;95851.59;1032776;28;1236;-76
2021/07/18 00:31:58;;;;;;;;;;;;;;;22.07;62.84;95842.06;1033027;28;1238;-76
2021/07/18 00:32:28;;;;;;;;;;;;;;;22.07;62.91;95842.06;1042510;28;1180;-76
2021/07/18 00:32:59;;;;;;;;;;;;;;;22.08;63.04;95837.59;1038612;28;1190;-76
2021/07/18 00:33:29;;;;;;;;;;;;;;;22.08;62.79;95842.88;1036396;28;1340;-75
2021/07/18 00:33:59;;;;;;;;;;;;;;;22.09;63.01;95841.81;1038721;28;1124;-74
2021/07/18 00:34:30;;;;;;;;;;;;;;;22.09;62.99;95839.19;1040406;28;757;-77
2021/07/18 00:35:00;;;;;;;;;;;;;;;22.08;62.93;95846.31;1041602;28;2318;-75
2021/07/18 00:35:31;;;;;;;;;;;;;;;22.07;63.03;95839.44;1044747;28;2203;-77
2021/07/18 00:36:01;;;;;;;;;;;;;;;22.09;63.14;95839.19;1044832;28;1155;-76
2021/07/18 00:36:31;;;;;;;;;;;;;;;22.09;62.77;95839.19;1045070;28;796;-75
2021/07/18 00:37:02;;;;;;;;;;;;;;;22.09;62.66;95833.91;1040178;28;1247;-76
2021/07/18 00:37:32;;;;;;;;;;;;;;;22.09;62.87;95834.66;1036474;28;1460;-77
2021/07/18 00:38:02;;;;;;;;;;;;;;;22.09;62.68;95837.31;1038598;28;1984;-77
2021/07/18 00:38:33;;;;;;;;;;;;;;;22.09;62.99;95836.53;1040017;28;1186;-76
2021/07/18 00:39:03;;;;;;;;;;;;;;;22.08;62.64;95841.03;1040983;28;1366;-75
2021/07/18 00:39:33;;;;;;;;;;;;;;;22.08;62.94;95838.38;1040436;28;1401;-77
2021/07/18 00:40:04;;;;;;;;;;;;;;;22.09;62.79;95836.53;1040587;28;2254;-76
2021/07/18 00:40:36;;;;;;;;;;;;;;;22.09;62.85;95834.66;1037626;28;843;-77
2021/07/18 00:41:06;;;;;;;;;;;;;;;22.09;62.85;95842.59;1047242;28;1291;-74
2021/07/18 00:41:36;;;;;;;;;;;;;;;22.08;63.07;95841.03;1047361;28;1578;-76
2021/07/18 00:42:06;;;;;;;;;;;;;;;22.08;63.08;95843.66;1048141;28;1214;-75
2021/07/18 00:42:37;;;;;;;;;;;;;;;22.09;62.89;95836.53;1045348;28;1151;-77
2021/07/18 00:43:07;;;;;;;;;;;;;;;22.09;62.92;95839.94;1042065;28;1178;-77
2021/07/18 00:43:37;;;;;;;;;;;;;;;22.09;62.72;95837.31;1042749;28;855;-76
2021/07/18 00:44:08;;;;;;;;;;;;;;;22.09;62.70;95842.59;1044464;28;1297;-76
2021/07/18 00:44:38;;;;;;;;;;;;;;;22.09;62.88;95834.66;1049439;28;997;-76
2021/07/18 00:45:08;;;;;;;;;;;;;;;22.09;62.64;95832.03;1035708;28;2248;-75
2021/07/18 00:45:39;;;;;;;;;;;;;;;22.10;62.54;95840.72;1036404;28;1413;-76
2021/07/18 00:46:09;;;;;;;;;;;;;;;22.10;62.80;95836.25;1041118;28;1179;-77
2021/07/18 00:46:39;;;;;;;;;;;;;;;22.09;62.48;95834.66;1041077;28;1210;-77
2021/07/18 00:47:10;;;;;;;;;;;;;;;22.10;62.63;95833.59;1042565;28;1482;-76
2021/07/18 00:47:40;;;;;;;;;;;;;;;22.09;62.78;95839.19;1044478;28;1574;-77
2021/07/18 00:48:11;;;;;;;;;;;;;;;22.10;62.53;95832.81;1045022;28;1180;-77
2021/07/18 00:48:41;;;;;;;;;;;;;;;22.09;62.39;95829.38;1045807;28;1198;-77
2021/07/18 00:49:11;;;;;;;;;;;;;;;22.10;62.49;95830.97;1045221;28;1971;-76
2021/07/18 00:49:42;;;;;;;;;;;;;;;22.11;62.43;95831.75;1045050;28;1185;-75
2021/07/18 00:50:13;;;;;;;;;;;;;;;22.13;62.48;95830.41;1042352;28;2274;-76
2021/07/18 00:50:44;;;;;;;;;;;;;;;22.12;62.76;95828.03;1044962;28;1542;-76
2021/07/18 00:51:14;;;;;;;;;;;;;;;22.10;62.52;95828.31;1041585;28;1343;-76
2021/07/18 00:51:44;;;;;;;;;;;;;;;22.10;62.50;95830.97;1040912;28;1282;-76
2021/07/18 00:52:15;;;;;;;;;;;;;;;22.09;62.65;95829.38;1037309;28;828;-76
2021/07/18 00:52:45;;;;;;;;;;;;;;;22.09;62.46;95824.09;1036068;28;2342;-75
2021/07/18 00:53:15;;;;;;;;;;;;;;;22.08;62.74;95830.47;1034855;28;1960;-76
2021/07/18 00:53:45;;;;;;;;;;;;;;;22.09;62.63;95826.75;1036947;28;1036;-77
2021/07/18 00:54:16;;;;;;;;;;;;;;;22.08;62.94;95827.03;1040763;28;3383;-76
2021/07/18 00:54:46;;;;;;;;;;;;;;;22.08;62.72;95822.53;1043511;28;1145;-76
2021/07/18 00:55:16;;;;;;;;;;;;;;;22.09;62.60;95826.75;1036210;28;2631;-76
2021/07/18 00:55:47;;;;;;;;;;;;;;;22.08;62.64;95827.81;1032800;28;1184;-76
2021/07/18 00:56:17;;;;;;;;;;;;;;;22.09;62.72;95825.97;1032010;28;2629;-76
2021/07/18 00:56:48;;;;;;;;;;;;;;;22.09;62.64;95831.25;1029779;28;1192;-77
2021/07/18 00:57:18;;;;;;;;;;;;;;;22.09;62.56;95832.03;1030973;28;1395;-76
2021/07/18 00:57:48;;;;;;;;;;;;;;;22.09;62.70;95829.38;1032877;28;1902;-76
2021/07/18 00:58:18;;;;;;;;;;;;;;;22.10;62.85;95835.47;1031700;28;2691;-76
2021/07/18 00:58:53;;;;;;;;;;;;;;;22.09;62.76;95824.09;1033714;28;1342;-76
2021/07/18 00:59:24;;;;;;;;;;;;;;;22.09;62.64;95826.75;1037497;28;1066;-76
2021/07/18 00:59:54;;;;;;;;;;;;;;;22.09;62.53;95821.47;1038598;28;1186;-76
2021/07/18 01:00:24;;;;;;;;;;;;;;;22.10;62.63;95828.31;1035511;28;2418;-76
2021/07/18 01:00:55;;;;;;;;;;;;;;;22.10;62.57;95824.91;1037758;28;1360;-76
2021/07/18 01:01:25;;;;;;;;;;;;;;;22.10;62.57;95824.91;1041650;28;1050;-77
2021/07/18 01:01:56;;;;;;;;;;;;;;;22.10;62.58;95822.25;1034432;28;1267;-76
2021/07/18 01:02:26;;;;;;;;;;;;;;;22.09;62.65;95824.09;1032961;28;1051;-76
2021/07/18 01:02:57;;;;;;;;;;;;;;;22.10;62.76;95824.91;1035208;28;1156;-76
2021/07/18 01:03:27;;;;;;;;;;;;;;;22.11;62.45;95821.22;1030468;28;1201;-76
2021/07/18 01:03:57;;;;;;;;;;;;;;;22.11;62.17;95827.28;1036017;28;2628;-76
2021/07/18 01:04:28;;;;;;;;;;;;;;;22.10;62.53;95828.31;1035855;28;1212;-77
2021/07/18 01:04:58;;;;;;;;;;;;;;;22.10;62.30;95824.91;1035520;28;1242;-76
2021/07/18 01:05:28;;;;;;;;;;;;;;;22.11;62.47;95823.84;1038964;28;2718;-76
2021/07/18 01:05:59;;;;;;;;;;;;;;;22.09;62.38;95826.75;1037079;28;1061;-77
2021/07/18 01:06:29;;;;;;;;;;;;;;;22.11;62.44;95829.91;1032057;28;1673;-76
2021/07/18 01:06:59;;;;;;;;;;;;;;;22.12;62.24;95828.03;1037341;28;1183;-78
2021/07/18 01:07:29;;;;;;;;;;;;;;;22.11;62.37;95827.28;1041349;28;943;-77
2021/07/18 01:08:00;;;;;;;;;;;;;;;22.11;62.27;95831.75;1043600;28;1186;-76
2021/07/18 01:08:30;;;;;;;;;;;;;;;22.11;62.57;95826.47;1040991;28;1335;-76
2021/07/18 01:09:00;;;;;;;;;;;;;;;22.10;62.15;95830.97;1034860;28;1225;-77
2021/07/18 01:09:31;;;;;;;;;;;;;;;22.09;62.34;95829.38;1035342;28;1973;-77
2021/07/18 01:10:05;;;;;;;;;;;;;;;22.10;62.37;95828.31;1032695;28;1223;-76
2021/07/18 01:10:35;;;;;;;;;;;;;;;22.11;62.41;95831.75;1031779;28;2617;-76
2021/07/18 01:11:05;;;;;;;;;;;;;;;22.11;62.30;95824.63;1036777;28;1273;-76
2021/07/18 01:11:36;;;;;;;;;;;;;;;22.10;62.33;95825.69;1035886;28;1449;-76
2021/07/18 01:12:06;;;;;;;;;;;;;;;22.10;62.25;95827.53;1040877;28;1196;-75
2021/07/18 01:12:36;;;;;;;;;;;;;;;22.09;62.48;95823.34;1044952;28;878;-76
2021/07/18 01:13:06;;;;;;;;;;;;;;;22.09;62.34;95824.09;1040884;28;1171;-76
2021/07/18 01:13:37;;;;;;;;;;;;;;;22.10;62.08;95828.31;1040854;28;1167;-75
2021/07/18 01:14:07;;;;;;;;;;;;;;;22.11;62.27;95829.13;1040292;28;1918;-75
2021/07/18 01:14:37;;;;;;;;;;;;;;;22.10;62.16;95830.97;1036513;28;1195;-76
2021/07/18 01:15:08;;;;;;;;;;;;;;;22.09;62.50;95829.38;1038427;28;2256;-76
2021/07/18 01:15:38;;;;;;;;;;;;;;;22.10;62.26;95835.47;1033762;28;2200;-75
2021/07/18 01:16:08;;;;;;;;;;;;;;;22.09;62.15;95825.97;1043481;28;1302;-76
2021/07/18 01:16:38;;;;;;;;;;;;;;;22.10;62.20;95827.53;1047524;28;1324;-76
2021/07/18 01:17:09;;;;;;;;;;;;;;;22.09;62.46;95829.38;1044322;28;1194;-76
2021/07/18 01:17:39;;;;;;;;;;;;;;;22.10;62.19;95825.69;1045073;28;912;-76
2021/07/18 01:18:09;;;;;;;;;;;;;;;22.09;62.38;95824.09;1045019;28;1160;-76
2021/07/18 01:18:40;;;;;;;;;;;;;;;22.11;62.11;95827.28;1042695;28;1108;-76
2021/07/18 01:19:10;;;;;;;;;;;;;;;22.11;62.26;95824.63;1040010;28;1120;-75
2021/07/18 01:19:40;;;;;;;;;;;;;;;22.11;62.13;95826.47;1040427;28;843;-77
2021/07/18 01:20:11;;;;;;;;;;;;;;;22.11;62.12;95827.28;1039946;28;2348;-76
2021/07/18 01:20:41;;;;;;;;;;;;;;;22.10;62.38;95828.31;1036600;28;2377;-75
2021/07/18 01:21:12;;;;;;;;;;;;;;;22.11;62.34;95827.28;1040530;28;1292;-76
2021/07/18 01:21:42;;;;;;;;;;;;;;;22.11;62.31;95826.47;1040335;28;1448;-77
2021/07/18 01:22:12;;;;;;;;;;;;;;;22.11;62.09;95827.28;1032844;28;1455;-76
2021/07/18 01:22:42;;;;;;;;;;;;;;;22.11;62.45;95826.47;1034961;28;2200;-76
2021/07/18 01:23:13;;;;;;;;;;;;;;;22.12;62.25;95825.41;1039209;28;1243;-76
2021/07/18 01:23:44;;;;;;;;;;;;;;;22.10;62.25;95830.97;1037457;28;1148;-77
2021/07/18 01:24:14;;;;;;;;;;;;;;;22.10;62.01;95822.25;1032691;28;1345;-76
2021/07/18 01:24:44;;;;;;;;;;;;;;;22.11;62.44;95822.00;1028822;28;1208;-76
2021/07/18 01:25:15;;;;;;;;;;;;;;;22.11;62.12;95823.84;1035109;28;2527;-76
2021/07/18 01:25:45;;;;;;;;;;;;;;;22.10;62.20;95830.97;1036866;28;1014;-76
2021/07/18 01:26:15;;;;;;;;;;;;;;;22.11;62.11;95827.28;1045451;28;1013;-76
2021/07/18 01:26:45;;;;;;;;;;;;;;;22.11;62.12;95826.47;1041888;28;1216;-77
2021/07/18 01:27:16;;;;;;;;;;;;;;;22.11;62.21;95831.75;1036552;28;1167;-76
2021/07/18 01:27:46;;;;;;;;;;;;;;;22.10;62.39;95820.41;1028588;28;1240;-75
2021/07/18 01:28:16;;;;;;;;;;;;;;;22.10;62.16;95830.19;1026739;28;1156;-76
2021/07/18 01:28:47;;;;;;;;;;;;;;;22.10;62.11;95822.25;1029302;28;1172;-76
2021/07/18 01:29:17;;;;;;;;;;;;;;;22.09;62.48;95829.38;1036328;28;1906;-75
2021/07/18 01:29:47;;;;;;;;;;;;;;;22.10;62.20;95824.91;1041492;28;1136;-76
2021/07/18 01:30:17;;;;;;;;;;;;;;;22.12;62.33;95823.56;1042875;28;2235;-76
2021/07/18 01:30:48;;;;;;;;;;;;;;;22.10;62.31;95830.97;1045432;28;1056;-76
2021/07/18 01:31:18;;;;;;;;;;;;;;;22.10;62.12;95825.69;1048853;28;1162;-76
2021/07/18 01:31:48;;;;;;;;;;;;;;;22.10;62.20;95825.69;1041437;28;1180;-76
2021/07/18 01:32:19;;;;;;;;;;;;;;;22.09;62.21;95828.63;1042159;28;1137;-76
2021/07/18 01:32:49;;;;;;;;;;;;;;;22.10;62.45;95825.69;1038280;28;1199;-76
2021/07/18 01:33:19;;;;;;;;;;;;;;;22.10;62.30;95823.06;1041133;28;1253;-76
2021/07/18 01:33:50;;;;;;;;;;;;;;;22.10;62.28;95824.91;1043248;28;1155;-75
2021/07/18 01:34:20;;;;;;;;;;;;;;;22.09;62.34;95824.09;1045106;28;781;-76
2021/07/18 01:34:50;;;;;;;;;;;;;;;22.09;62.34;95826.75;1043718;28;1114;-75
2021/07/18 01:35:21;;;;;;;;;;;;;;;22.09;62.21;95821.47;1046209;28;2375;-75
2021/07/18 01:35:51;;;;;;;;;;;;;;;22.11;62.32;95823.84;1041731;28;1128;-76
2021/07/18 01:36:21;;;;;;;;;;;;;;;22.10;62.40;95828.31;1040872;28;1311;-75
2021/07/18 01:36:52;;;;;;;;;;;;;;;22.13;62.11;95825.16;1044680;28;1475;-76
2021/07/18 01:37:22;;;;;;;;;;;;;;;22.11;62.28;95826.47;1044989;28;1183;-76
2021/07/18 01:37:52;;;;;;;;;;;;;;;22.11;62.30;95823.84;1040496;28;1249;-75
2021/07/18 01:38:23;;;;;;;;;;;;;;;22.10;62.34;95825.69;1039791;28;1239;-75
2021/07/18 01:38:53;;;;;;;;;;;;;;;22.10;62.39;95828.31;1040587;28;1080;-77
2021/07/18 01:39:23;;;;;;;;;;;;;;;22.11;62.03;95826.47;1040871;28;787;-76
2021/07/18 01:39:54;;;;;;;;;;;;;;;22.11;62.03;95829.91;1040653;28;2008;-76
2021/07/18 01:40:24;;;;;;;;;;;;;;;22.10;62.38;95824.91;1045122;28;2348;-75
2021/07/18 01:40:54;;;;;;;;;;;;;;;22.10;62.25;95825.69;1046227;28;1316;-76
2021/07/18 01:41:24;;;;;;;;;;;;;;;22.09;62.31;95824.09;1044907;28;958;-77
2021/07/18 01:41:55;;;;;;;;;;;;;;;22.10;62.37;95824.91;1046174;28;1386;-76
2021/07/18 01:42:25;;;;;;;;;;;;;;;22.10;62.20;95824.91;1040742;28;1164;-76
2021/07/18 01:42:56;;;;;;;;;;;;;;;22.10;62.41;95823.06;1040905;28;1205;-77
2021/07/18 01:43:26;;;;;;;;;;;;;;;22.09;62.36;95826.75;1041047;28;1143;-76
2021/07/18 01:43:56;;;;;;;;;;;;;;;22.10;62.19;95822.25;1041890;28;1028;-76
2021/07/18 01:44:27;;;;;;;;;;;;;;;22.10;62.16;95827.53;1044897;28;764;-76
2021/07/18 01:44:57;;;;;;;;;;;;;;;22.09;62.45;95824.09;1044865;28;1191;-76
2021/07/18 01:45:27;;;;;;;;;;;;;;;22.11;62.08;95826.47;1042677;28;2324;-77
2021/07/18 01:45:58;;;;;;;;;;;;;;;22.11;62.39;95823.84;1042463;28;1144;-76
2021/07/18 01:46:31;;;;;;;;;;;;;;;22.11;62.35;95822.00;1044977;28;931;-76
2021/07/18 01:47:01;;;;;;;;;;;;;;;22.11;62.12;95822.00;1044344;28;1242;-76
2021/07/18 01:47:31;;;;;;;;;;;;;;;22.11;62.22;95819.34;1044889;28;852;-75
2021/07/18 01:48:02;;;;;;;;;;;;;;;22.11;62.19;95816.72;1039776;28;1682;-76
2021/07/18 01:48:32;;;;;;;;;;;;;;;22.11;62.39;95821.22;1036524;28;1288;-76
2021/07/18 01:49:11;;;;;;;;;;;;;;;22.11;62.15;95821.22;1036439;28;1143;-76
2021/07/18 01:49:41;;;;;;;;;;;;;;;22.11;62.10;95816.72;1037571;28;1397;-76
2021/07/18 01:50:12;;;;;;;;;;;;;;;22.09;62.12;95818.81;1042512;28;1124;-75
2021/07/18 01:50:42;;;;;;;;;;;;;;;22.10;62.16;95820.41;1043371;28;2368;-76
2021/07/18 01:51:19;;;;;;;;;;;;;;;22.09;62.14;95824.09;1048722;28;1210;-77
2021/07/18 01:51:49;;;;;;;;;;;;;;;22.08;62.26;95819.91;1046028;28;1178;-76
2021/07/18 01:52:19;;;;;;;;;;;;;;;22.08;62.50;95827.81;1044866;28;1138;-76
2021/07/18 01:52:49;;;;;;;;;;;;;;;22.08;62.26;95817.25;1044809;28;1183;-76
2021/07/18 01:53:20;;;;;;;;;;;;;;;22.08;62.22;95819.91;1042931;28;2364;-76
2021/07/18 01:53:51;;;;;;;;;;;;;;;22.09;62.42;95824.09;1038626;28;2770;-76
2021/07/18 01:54:21;;;;;;;;;;;;;;;22.09;62.47;95821.47;1038131;28;1779;-75
2021/07/18 01:54:55;;;;;;;;;;;;;;;22.08;62.24;95817.25;1033650;28;1299;-77
2021/07/18 01:55:25;;;;;;;;;;;;;;;22.09;62.38;95821.47;1035457;28;2392;-76
2021/07/18 01:55:55;;;;;;;;;;;;;;;22.08;62.24;95817.25;1034415;28;1025;-76
2021/07/18 01:56:26;;;;;;;;;;;;;;;22.08;62.55;95817.25;1037326;28;1005;-77
2021/07/18 01:56:56;;;;;;;;;;;;;;;22.08;62.24;95822.53;1042295;28;1595;-76
2021/07/18 01:57:26;;;;;;;;;;;;;;;22.08;62.37;95825.19;1038118;28;1194;-76
2021/07/18 01:57:57;;;;;;;;;;;;;;;22.09;62.17;95821.47;1042482;28;1219;-76
2021/07/18 01:58:27;;;;;;;;;;;;;;;22.09;62.45;95818.81;1044814;28;763;-77
2021/07/18 01:58:57;;;;;;;;;;;;;;;22.08;62.47;95819.91;1044553;28;1210;-76
2021/07/18 01:59:28;;;;;;;;;;;;;;;22.08;62.39;95817.25;1044591;28;787;-75
2021/07/18 01:59:58;;;;;;;;;;;;;;;22.08;62.54;95816.47;1046882;28;1072;-76
2021/07/18 02:00:28;;;;;;;;;;;;;;;22.09;62.41;95818.81;1044707;28;2328;-76
2021/07/18 02:00:58;;;;;;;;;;;;;;;22.08;62.40;95819.91;1038467;28;1377;-76
2021/07/18 02:01:29;;;;;;;;;;;;;;;22.08;62.44;95822.53;1040758;28;863;-76
2021/07/18 02:02:00;;;;;;;;;;;;;;;22.07;62.35;95812.28;1043459;28;1724;-75
2021/07/18 02:02:30;;;;;;;;;;;;;;;22.08;62.20;95817.25;1040274;28;1360;-75
2021/07/18 02:03:00;;;;;;;;;;;;;;;22.07;62.46;95820.19;1042865;28;1144;-76
2021/07/18 02:03:31;;;;;;;;;;;;;;;22.07;62.27;95818.31;1039883;28;1366;-76
2021/07/18 02:04:02;;;;;;;;;;;;;;;22.07;62.27;95814.91;1035374;28;2283;-77
2021/07/18 02:04:32;;;;;;;;;;;;;;;22.05;62.22;95817.81;1036359;28;749;-76
2021/07/18 02:05:04;;;;;;;;;;;;;;;22.05;62.49;95820.44;1043603;28;1256;-76
2021/07/18 02:05:34;;;;;;;;;;;;;;;22.04;62.67;95821.53;1043736;28;2609;-76
2021/07/18 02:06:05;;;;;;;;;;;;;;;22.04;62.40;95820.75;1044587;28;1188;-76
2021/07/18 02:06:35;;;;;;;;;;;;;;;22.03;62.61;95819.94;1044880;28;826;-75
2021/07/18 02:07:05;;;;;;;;;;;;;;;22.03;62.54;95817.31;1044338;28;1233;-77
2021/07/18 02:07:35;;;;;;;;;;;;;;;22.03;62.51;95825.22;1044962;28;1383;-75
2021/07/18 02:08:06;;;;;;;;;;;;;;;22.03;62.54;95819.19;1035814;28;1392;-76
2021/07/18 02:08:37;;;;;;;;;;;;;;;22.03;62.42;95817.31;1038714;28;1198;-76
2021/07/18 02:09:07;;;;;;;;;;;;;;;22.04;62.31;95818.09;1036831;28;1979;-77
2021/07/18 02:09:37;;;;;;;;;;;;;;;22.05;62.52;95825.72;1036585;28;1054;-76
2021/07/18 02:10:08;;;;;;;;;;;;;;;22.04;62.39;95818.91;1043808;28;1163;-76
2021/07/18 02:10:38;;;;;;;;;;;;;;;22.03;62.54;95819.94;1039130;28;2198;-77
2021/07/18 02:11:08;;;;;;;;;;;;;;;22.03;62.36;95819.94;1043802;28;1315;-76
2021/07/18 02:11:39;;;;;;;;;;;;;;;22.04;62.40;95821.53;1048215;28;1162;-77
2021/07/18 02:12:10;;;;;;;;;;;;;;;22.05;62.36;95823.09;1047634;28;1233;-77
2021/07/18 02:12:40;;;;;;;;;;;;;;;22.05;62.49;95823.09;1044727;28;1412;-77
2021/07/18 02:13:14;;;;;;;;;;;;;;;22.04;62.30;95826.81;1048235;28;1151;-77
2021/07/18 02:13:51;;;;;;;;;;;;;;;22.05;62.14;95825.72;1044722;28;1147;-77
2021/07/18 02:14:22;;;;;;;;;;;;;;;22.05;62.53;95820.44;1043439;28;2546;-76
2021/07/18 02:14:52;;;;;;;;;;;;;;;22.05;62.29;95828.38;1044969;28;1119;-76
2021/07/18 02:15:23;;;;;;;;;;;;;;;22.05;62.31;95820.44;1040435;28;1176;-76
2021/07/18 02:15:53;;;;;;;;;;;;;;;22.05;62.25;95817.81;1035342;28;2698;-76
2021/07/18 02:16:24;;;;;;;;;;;;;;;22.05;62.43;95812.53;1032590;28;1261;-76
2021/07/18 02:16:54;;;;;;;;;;;;;;;22.06;62.28;95819.41;1028312;28;1606;-77
2021/07/18 02:17:24;;;;;;;;;;;;;;;22.05;62.21;95817.81;1035316;28;1034;-75
2021/07/18 02:17:54;;;;;;;;;;;;;;;22.06;62.21;95814.13;1043250;28;1147;-76
2021/07/18 02:18:25;;;;;;;;;;;;;;;22.06;62.36;95819.41;1040703;28;1303;-77
2021/07/18 02:18:55;;;;;;;;;;;;;;;22.08;62.17;95821.75;1044547;28;1194;-76
2021/07/18 02:19:29;;;;;;;;;;;;;;;22.08;62.26;95817.25;1035619;28;1947;-75
2021/07/18 02:19:59;;;;;;;;;;;;;;;22.07;62.35;95820.19;1041073;28;1152;-75
2021/07/18 02:20:29;;;;;;;;;;;;;;;22.08;62.07;95816.47;1038278;28;2283;-76
2021/07/18 02:20:59;;;;;;;;;;;;;;;22.07;62.22;95815.69;1034507;28;2413;-76
2021/07/18 02:21:30;;;;;;;;;;;;;;;22.07;62.26;95812.28;1035795;28;1424;-76
2021/07/18 02:22:00;;;;;;;;;;;;;;;22.07;61.99;95815.69;1028705;28;1205;-75
2021/07/18 02:22:42;;;;;;;;;;;;;;;22.07;62.09;95818.31;1033357;28;1419;-75
2021/07/18 02:23:13;;;;;;;;;;;;;;;22.07;62.42;95820.97;1041252;28;1319;-74
2021/07/18 02:23:43;;;;;;;;;;;;;;;22.07;61.99;95820.97;1043317;28;1893;-75
2021/07/18 02:24:13;;;;;;;;;;;;;;;22.08;62.08;95822.53;1041708;28;2362;-75
2021/07/18 02:24:43;;;;;;;;;;;;;;;22.07;62.05;95815.69;1042834;28;2668;-75
2021/07/18 02:25:14;;;;;;;;;;;;;;;22.08;62.27;95816.47;1044566;28;1212;-74
2021/07/18 02:25:45;;;;;;;;;;;;;;;22.07;62.12;95818.31;1041078;28;2633;-74
2021/07/18 02:26:18;;;;;;;;;;;;;;;22.07;62.17;95815.69;1044824;28;1045;-76
2021/07/18 02:26:48;;;;;;;;;;;;;;;22.06;62.24;95822.03;1041831;28;2233;-75
2021/07/18 02:27:18;;;;;;;;;;;;;;;22.06;62.39;95816.75;1046968;28;1470;-75
2021/07/18 02:27:49;;;;;;;;;;;;;;;22.07;62.35;95818.31;1044557;28;1135;-76
2021/07/18 02:28:19;;;;;;;;;;;;;;;22.07;62.21;95826.25;1044395;28;1074;-76
2021/07/18 02:28:49;;;;;;;;;;;;;;;22.07;62.31;95814.91;1044787;28;1202;-75
2021/07/18 02:29:19;;;;;;;;;;;;;;;22.06;62.30;95814.13;1041710;28;1976;-74
2021/07/18 02:29:50;;;;;;;;;;;;;;;22.06;62.17;95816.75;1041787;28;1099;-76
2021/07/18 02:30:20;;;;;;;;;;;;;;;22.06;62.00;95813.31;1044900;28;1130;-76
2021/07/18 02:30:51;;;;;;;;;;;;;;;22.07;61.96;95815.69;1044473;28;2640;-75
2021/07/18 02:31:21;;;;;;;;;;;;;;;22.07;62.06;95813.03;1048794;28;1147;-75
2021/07/18 02:31:52;;;;;;;;;;;;;;;22.07;62.30;95815.69;1043284;28;1223;-76
2021/07/18 02:32:23;;;;;;;;;;;;;;;22.08;62.04;95819.13;1038740;28;1641;-75
2021/07/18 02:32:53;;;;;;;;;;;;;;;22.06;61.98;95814.13;1034940;28;1385;-75
2021/07/18 02:33:23;;;;;;;;;;;;;;;22.07;61.94;95815.69;1036409;28;1200;-76
2021/07/18 02:33:53;;;;;;;;;;;;;;;22.06;62.23;95816.75;1038208;28;1166;-76
2021/07/18 02:34:24;;;;;;;;;;;;;;;22.06;62.12;95815.97;1032304;28;1311;-76
2021/07/18 02:34:54;;;;;;;;;;;;;;;22.06;61.96;95814.13;1037617;28;1112;-75
2021/07/18 02:35:24;;;;;;;;;;;;;;;22.06;62.14;95813.31;1046638;28;1115;-76
2021/07/18 02:35:55;;;;;;;;;;;;;;;22.06;62.12;95813.31;1042156;28;2339;-75
2021/07/18 02:36:25;;;;;;;;;;;;;;;22.05;62.10;95809.91;1044404;28;1446;-74
2021/07/18 02:36:55;;;;;;;;;;;;;;;22.05;62.23;95809.91;1040569;28;1215;-75
2021/07/18 02:37:26;;;;;;;;;;;;;;;22.05;62.37;95807.25;1040244;28;1176;-74
2021/07/18 02:37:56;;;;;;;;;;;;;;;22.05;62.20;95809.91;1040456;28;1215;-74
2021/07/18 02:38:26;;;;;;;;;;;;;;;22.05;62.01;95809.91;1035575;28;1025;-75
2021/07/18 02:38:58;;;;;;;;;;;;;;;22.05;62.22;95817.81;1042047;28;1141;-75
2021/07/18 02:39:28;;;;;;;;;;;;;;;22.05;62.02;95807.25;1044416;28;1091;-75
2021/07/18 02:39:59;;;;;;;;;;;;;;;22.05;61.99;95804.63;1044673;28;1160;-76
2021/07/18 02:40:29;;;;;;;;;;;;;;;22.05;61.93;95801.97;1044660;28;1178;-76
2021/07/18 02:41:00;;;;;;;;;;;;;;;22.04;61.99;95803.06;1043444;28;2648;-75
2021/07/18 02:41:30;;;;;;;;;;;;;;;22.05;62.09;95807.25;1044470;28;1567;-75